createdAt,value
2018-04-16T00:01:01.877Z,13.70
2018-04-16T00:03:28.292Z,13.70
2018-04-16T00:05:54.635Z,13.80
2018-04-16T00:08:20.965Z,13.80
2018-04-16T00:10:47.343Z,13.80
2018-04-16T00:13:14.477Z,13.60
2018-04-16T00:15:41.561Z,13.70
2018-04-16T00:18:07.925Z,13.70
2018-04-16T00:20:34.293Z,13.70
2018-04-16T00:23:01.388Z,13.70
2018-04-16T00:25:27.721Z,13.60
2018-04-16T00:27:54.037Z,13.70
2018-04-16T00:30:20.353Z,13.60
2018-04-16T00:32:52.633Z,13.50
2018-04-16T00:35:25.062Z,13.50
2018-04-16T00:37:57.532Z,13.30
2018-04-16T00:40:30.113Z,13.40
2018-04-16T00:43:02.486Z,13.30
2018-04-16T00:45:34.915Z,13.10
2018-04-16T00:48:07.388Z,13.20
2018-04-16T00:50:40.011Z,13.10
2018-04-16T00:53:12.576Z,13.10
2018-04-16T00:55:45.188Z,13.00
2018-04-16T00:58:18.389Z,13.10
2018-04-16T01:00:50.904Z,13.00
2018-04-16T01:03:23.365Z,12.90
2018-04-16T01:05:55.981Z,12.60
2018-04-16T01:08:28.504Z,12.80
2018-04-16T01:11:01.113Z,12.80
2018-04-16T01:13:33.524Z,12.70
2018-04-16T01:16:06.773Z,12.70
2018-04-16T01:18:39.960Z,12.70
2018-04-16T01:21:12.580Z,12.80
2018-04-16T01:23:44.879Z,12.80
2018-04-16T01:26:17.789Z,12.70
2018-04-16T01:28:50.175Z,12.80
2018-04-16T01:31:22.625Z,12.70
2018-04-16T01:33:55.002Z,12.60
2018-04-16T01:36:27.484Z,12.60
2018-04-16T01:38:59.948Z,12.50
2018-04-16T01:41:32.548Z,12.40
2018-04-16T01:44:05.164Z,12.30
2018-04-16T01:46:37.524Z,12.20
2018-04-16T01:52:06.501Z,12.20
2018-04-16T01:54:38.987Z,12.20
2018-04-16T01:57:11.609Z,12.20
2018-04-16T01:59:55.478Z,12.20
2018-04-16T02:02:28.869Z,12.20
2018-04-16T02:05:01.363Z,12.10
2018-04-16T02:07:48.585Z,12.10
2018-04-16T02:10:21.117Z,12.20
2018-04-16T02:12:55.256Z,12.20
2018-04-16T02:15:27.657Z,12.20
2018-04-16T02:18:00.093Z,12.20
2018-04-16T02:20:33.241Z,12.30
2018-04-16T02:23:07.100Z,12.20
2018-04-16T02:25:39.565Z,12.20
2018-04-16T02:28:11.962Z,12.30
2018-04-16T02:30:44.591Z,12.40
2018-04-16T02:33:17.049Z,12.30
2018-04-16T02:35:49.637Z,12.30
2018-04-16T02:38:22.030Z,12.30
2018-04-16T02:40:54.544Z,12.20
2018-04-16T02:43:26.785Z,12.10
2018-04-16T02:45:59.313Z,12.20
2018-04-16T02:48:31.713Z,12.20
2018-04-16T02:51:04.164Z,12.20
2018-04-16T02:53:36.481Z,12.10
2018-04-16T02:56:08.861Z,12.10
2018-04-16T02:58:41.466Z,12.20
2018-04-16T03:01:13.920Z,12.30
2018-04-16T03:03:46.453Z,12.30
2018-04-16T03:06:19.017Z,12.20
2018-04-16T03:08:51.607Z,12.10
2018-04-16T03:11:24.025Z,12.10
2018-04-16T03:13:59.138Z,11.80
2018-04-16T03:16:31.658Z,11.80
2018-04-16T03:19:04.050Z,11.70
2018-04-16T03:21:36.489Z,11.70
2018-04-16T03:24:09.001Z,11.70
2018-04-16T03:26:41.450Z,11.70
2018-04-16T03:29:13.939Z,11.80
2018-04-16T03:31:46.449Z,11.60
2018-04-16T03:34:18.874Z,11.70
2018-04-16T03:39:47.701Z,11.70
2018-04-16T03:42:20.239Z,11.50
2018-04-16T03:44:52.517Z,11.40
2018-04-16T03:47:25.030Z,11.40
2018-04-16T03:49:57.453Z,11.60
2018-04-16T03:52:40.672Z,11.60
2018-04-16T03:55:07.769Z,11.60
2018-04-16T03:57:34.117Z,11.60
2018-04-16T04:00:00.481Z,11.50
2018-04-16T04:02:27.533Z,11.30
2018-04-16T04:04:54.624Z,11.20
2018-04-16T04:07:20.957Z,11.20
2018-04-16T04:09:47.293Z,11.20
2018-04-16T04:12:13.622Z,11.30
2018-04-16T04:14:40.960Z,11.20
2018-04-16T04:17:07.342Z,11.30
2018-04-16T04:19:33.677Z,11.20
2018-04-16T04:22:00.745Z,11.40
2018-04-16T04:24:39.441Z,11.30
2018-04-16T04:27:18.090Z,11.40
2018-04-16T04:29:56.798Z,11.50
2018-04-16T04:32:23.848Z,11.50
2018-04-16T04:34:50.165Z,11.50
2018-04-16T04:37:17.249Z,11.60
2018-04-16T04:39:43.587Z,11.60
2018-04-16T04:42:09.929Z,11.60
2018-04-16T04:44:37.304Z,11.50
2018-04-16T04:47:03.677Z,11.40
2018-04-16T04:49:30.009Z,11.50
2018-04-16T04:51:56.318Z,11.60
2018-04-16T04:54:22.640Z,11.50
2018-04-16T04:56:48.964Z,11.60
2018-04-16T04:59:15.285Z,11.60
2018-04-16T05:01:41.607Z,11.60
2018-04-16T05:04:07.929Z,11.50
2018-04-16T05:06:34.327Z,11.40
2018-04-16T05:09:00.645Z,11.40
2018-04-16T05:11:27.741Z,11.40
2018-04-16T05:13:54.072Z,11.40
2018-04-16T05:16:20.391Z,11.50
2018-04-16T05:18:46.745Z,11.40
2018-04-16T05:21:13.085Z,11.40
2018-04-16T05:23:39.457Z,11.30
2018-04-16T05:26:06.504Z,11.30
2018-04-16T05:28:33.560Z,11.30
2018-04-16T05:31:00.878Z,11.30
2018-04-16T05:33:28.221Z,11.30
2018-04-16T05:35:54.565Z,11.30
2018-04-16T05:38:20.893Z,11.30
2018-04-16T05:40:47.227Z,11.30
2018-04-16T05:43:13.545Z,11.40
2018-04-16T05:45:39.888Z,11.40
2018-04-16T05:48:06.212Z,11.40
2018-04-16T05:50:32.525Z,11.50
2018-04-16T05:52:58.842Z,11.60
2018-04-16T05:55:25.177Z,11.70
2018-04-16T05:57:51.528Z,11.70
2018-04-16T06:00:17.956Z,11.80
2018-04-16T06:02:44.228Z,12.00
2018-04-16T06:05:11.277Z,12.10
2018-04-16T06:07:38.377Z,12.10
2018-04-16T06:10:04.725Z,12.00
2018-04-16T06:12:31.777Z,11.90
2018-04-16T06:14:58.105Z,12.10
2018-04-16T06:17:25.438Z,12.20
2018-04-16T06:19:51.801Z,12.20
2018-04-16T06:22:18.869Z,11.80
2018-04-16T06:24:45.192Z,11.80
2018-04-16T06:27:11.556Z,11.80
2018-04-16T06:29:37.913Z,11.80
2018-04-16T06:32:04.249Z,11.90
2018-04-16T06:34:30.581Z,11.80
2018-04-16T06:36:56.957Z,11.80
2018-04-16T06:39:23.241Z,11.90
2018-04-16T06:41:49.577Z,11.80
2018-04-16T06:44:15.885Z,12.00
2018-04-16T06:46:42.199Z,12.10
2018-04-16T06:49:08.509Z,12.20
2018-04-16T06:51:34.853Z,12.30
2018-04-16T06:54:02.208Z,12.40
2018-04-16T06:56:28.561Z,12.40
2018-04-16T06:58:54.905Z,12.30
2018-04-16T07:01:21.869Z,12.40
2018-04-16T07:03:48.246Z,12.40
2018-04-16T07:06:14.583Z,12.50
2018-04-16T07:08:40.917Z,12.40
2018-04-16T07:11:07.266Z,12.40
2018-04-16T07:13:33.586Z,12.30
2018-04-16T07:15:59.929Z,12.50
2018-04-16T07:18:26.279Z,12.60
2018-04-16T07:20:52.598Z,12.80
2018-04-16T07:23:19.918Z,12.90
2018-04-16T07:25:46.237Z,12.70
2018-04-16T07:28:12.604Z,12.50
2018-04-16T07:30:38.973Z,12.50
2018-04-16T07:33:05.305Z,12.60
2018-04-16T07:35:32.365Z,12.60
2018-04-16T07:37:58.693Z,12.60
2018-04-16T07:40:25.793Z,12.90
2018-04-16T07:42:52.107Z,12.90
2018-04-16T07:45:18.465Z,13.00
2018-04-16T07:47:44.776Z,13.00
2018-04-16T07:50:11.101Z,12.90
2018-04-16T07:52:37.453Z,13.00
2018-04-16T07:55:03.769Z,13.20
2018-04-16T07:57:30.091Z,13.10
2018-04-16T07:59:56.433Z,13.10
2018-04-16T08:02:22.750Z,13.10
2018-04-16T08:04:49.053Z,13.00
2018-04-16T08:07:16.144Z,12.80
2018-04-16T08:09:42.464Z,12.80
2018-04-16T08:12:08.826Z,12.80
2018-04-16T08:14:36.173Z,12.90
2018-04-16T08:17:02.497Z,12.90
2018-04-16T08:19:28.814Z,13.00
2018-04-16T08:21:55.133Z,13.00
2018-04-16T08:24:21.486Z,13.10
2018-04-16T08:26:47.837Z,13.20
2018-04-16T08:29:14.202Z,13.20
2018-04-16T08:31:40.537Z,13.20
2018-04-16T08:34:07.600Z,13.30
2018-04-16T08:36:33.952Z,13.20
2018-04-16T08:39:00.298Z,13.20
2018-04-16T08:41:26.633Z,13.20
2018-04-16T08:43:52.953Z,13.40
2018-04-16T08:46:19.271Z,13.50
2018-04-16T08:48:45.578Z,13.60
2018-04-16T08:51:12.637Z,13.70
2018-04-16T08:53:38.970Z,13.70
2018-04-16T08:56:05.305Z,13.80
2018-04-16T08:58:31.624Z,13.70
2018-04-16T09:00:59.125Z,13.80
2018-04-16T09:03:25.437Z,13.80
2018-04-16T09:05:51.785Z,13.80
2018-04-16T09:08:19.101Z,13.70
2018-04-16T09:10:45.424Z,13.60
2018-04-16T09:13:11.740Z,13.50
2018-04-16T09:15:38.077Z,13.50
2018-04-16T09:18:04.424Z,13.70
2018-04-16T09:20:30.780Z,13.60
2018-04-16T09:22:57.845Z,13.70
2018-04-16T09:25:24.941Z,13.70
2018-04-16T09:27:51.255Z,13.70
2018-04-16T09:30:17.565Z,13.80
2018-04-16T09:32:43.881Z,14.00
2018-04-16T09:35:10.195Z,14.00
2018-04-16T09:37:37.273Z,14.00
2018-04-16T09:40:03.625Z,14.00
2018-04-16T09:42:29.962Z,14.00
2018-04-16T09:44:56.284Z,14.10
2018-04-16T09:47:22.621Z,14.00
2018-04-16T09:49:48.952Z,14.00
2018-04-16T09:52:15.276Z,13.70
2018-04-16T09:54:41.626Z,13.80
2018-04-16T09:57:07.951Z,13.80
2018-04-16T09:59:35.254Z,13.80
2018-04-16T10:02:02.356Z,13.80
2018-04-16T10:04:28.721Z,13.80
2018-04-16T10:06:55.081Z,13.60
2018-04-16T10:09:21.421Z,13.60
2018-04-16T10:11:47.748Z,13.70
2018-04-16T10:14:14.084Z,13.80
2018-04-16T10:16:40.426Z,13.90
2018-04-16T10:19:06.772Z,13.90
2018-04-16T10:21:33.104Z,13.90
2018-04-16T10:23:59.442Z,13.90
2018-04-16T10:26:25.798Z,13.80
2018-04-16T10:28:52.848Z,13.90
2018-04-16T10:31:19.197Z,13.90
2018-04-16T10:33:46.264Z,14.50
2018-04-16T10:36:12.597Z,14.50
2018-04-16T10:38:38.913Z,14.50
2018-04-16T10:41:05.289Z,14.60
2018-04-16T10:43:31.568Z,14.50
2018-04-16T10:45:58.673Z,15.00
2018-04-16T10:48:25.025Z,14.90
2018-04-16T10:50:51.347Z,15.30
2018-04-16T10:53:17.669Z,15.30
2018-04-16T10:55:44.009Z,15.60
2018-04-16T10:58:10.386Z,15.90
2018-04-16T11:00:36.727Z,15.90
2018-04-16T11:03:03.093Z,16.10
2018-04-16T11:05:29.437Z,16.20
2018-04-16T11:07:55.864Z,16.40
2018-04-16T11:10:22.181Z,16.50
2018-04-16T11:12:48.498Z,16.30
2018-04-16T11:15:14.830Z,15.80
2018-04-16T11:17:41.182Z,15.50
2018-04-16T11:20:07.531Z,15.10
2018-04-16T11:22:33.856Z,14.80
2018-04-16T11:25:00.193Z,14.50
2018-04-16T11:27:26.534Z,14.50
2018-04-16T11:29:53.633Z,14.60
2018-04-16T11:32:20.019Z,14.60
2018-04-16T11:34:46.362Z,14.60
2018-04-16T11:37:13.235Z,14.60
2018-04-16T11:39:39.576Z,14.50
2018-04-16T11:42:05.906Z,14.20
2018-04-16T11:44:32.244Z,14.00
2018-04-16T11:46:58.566Z,13.80
2018-04-16T11:49:24.909Z,13.80
2018-04-16T11:51:51.227Z,14.00
2018-04-16T11:54:17.556Z,14.20
2018-04-16T11:56:43.889Z,14.30
2018-04-16T11:59:10.193Z,14.20
2018-04-16T12:01:36.541Z,14.20
2018-04-16T12:04:02.885Z,14.10
2018-04-16T12:06:29.213Z,14.00
2018-04-16T12:08:55.590Z,14.10
2018-04-16T12:11:22.661Z,14.40
2018-04-16T12:13:48.985Z,14.40
2018-04-16T12:16:15.352Z,14.50
2018-04-16T12:18:41.704Z,14.40
2018-04-16T12:21:08.791Z,14.30
2018-04-16T12:23:35.880Z,14.30
2018-04-16T12:26:02.905Z,14.20
2018-04-16T12:28:30.256Z,14.40
2018-04-16T12:30:56.586Z,14.40
2018-04-16T12:33:22.914Z,14.50
2018-04-16T12:35:49.225Z,14.60
2018-04-16T12:38:16.289Z,15.10
2018-04-16T12:40:42.602Z,15.10
2018-04-16T12:43:08.969Z,15.40
2018-04-16T12:45:35.311Z,15.70
2018-04-16T12:48:01.652Z,15.80
2018-04-16T12:50:27.972Z,15.80
2018-04-16T12:52:54.277Z,15.60
2018-04-16T12:55:20.610Z,15.30
2018-04-16T12:57:46.929Z,15.20
2018-04-16T13:00:13.257Z,15.00
2018-04-16T13:02:40.318Z,14.70
2018-04-16T13:05:07.393Z,14.50
2018-04-16T13:07:33.736Z,14.40
2018-04-16T13:10:00.077Z,14.20
2018-04-16T13:12:26.413Z,14.20
2018-04-16T13:14:52.732Z,14.20
2018-04-16T13:17:19.042Z,14.00
2018-04-16T13:19:45.377Z,13.90
2018-04-16T13:22:11.701Z,13.70
2018-04-16T13:24:38.028Z,13.70
2018-04-16T13:27:04.386Z,13.60
2018-04-16T13:29:30.701Z,13.70
2018-04-16T13:31:57.024Z,13.70
2018-04-16T13:34:24.580Z,13.60
2018-04-16T13:36:50.901Z,13.60
2018-04-16T13:39:18.233Z,13.50
2018-04-16T13:41:45.297Z,13.30
2018-04-16T13:44:11.620Z,13.30
2018-04-16T13:46:37.928Z,13.10
2018-04-16T13:49:04.990Z,13.20
2018-04-16T13:51:33.121Z,13.10
2018-04-16T13:53:59.433Z,13.10
2018-04-16T13:56:25.761Z,13.20
2018-04-16T13:58:53.098Z,13.10
2018-04-16T14:01:19.414Z,13.10
2018-04-16T14:03:45.743Z,13.20
2018-04-16T14:06:12.129Z,13.20
2018-04-16T14:08:39.464Z,13.30
2018-04-16T14:11:05.777Z,13.20
2018-04-16T14:13:32.098Z,13.30
2018-04-16T14:15:58.418Z,13.30
2018-04-16T14:18:25.469Z,13.30
2018-04-16T14:20:51.790Z,13.40
2018-04-16T14:23:18.862Z,13.40
2018-04-16T14:25:45.189Z,13.30
2018-04-16T14:28:11.526Z,13.50
2018-04-16T14:30:37.861Z,13.60
2018-04-16T14:33:04.216Z,13.70
2018-04-16T14:35:30.549Z,13.80
2018-04-16T14:37:56.889Z,14.00
2018-04-16T14:40:23.239Z,14.00
2018-04-16T14:42:49.565Z,14.10
2018-04-16T14:45:15.909Z,14.00
2018-04-16T14:47:42.972Z,14.20
2018-04-16T14:50:09.307Z,14.10
2018-04-16T14:52:35.644Z,14.20
2018-04-16T14:55:02.997Z,14.00
2018-04-16T14:57:29.341Z,13.90
2018-04-16T14:59:56.670Z,13.80
2018-04-16T15:02:23.772Z,13.80
2018-04-16T15:04:50.301Z,13.80
2018-04-16T15:07:16.653Z,13.70
2018-04-16T15:09:43.003Z,13.70
2018-04-16T15:12:10.085Z,13.80
2018-04-16T15:14:36.444Z,13.80
2018-04-16T15:17:03.819Z,13.60
2018-04-16T15:19:30.151Z,13.60
2018-04-16T15:21:56.458Z,13.70
2018-04-16T15:24:22.781Z,13.50
2018-04-16T15:26:49.109Z,13.50
2018-04-16T15:29:15.445Z,13.30
2018-04-16T15:31:41.765Z,13.20
2018-04-16T15:34:08.695Z,13.20
2018-04-16T15:36:35.013Z,13.20
2018-04-16T15:39:02.092Z,13.10
2018-04-16T15:41:28.450Z,13.10
2018-04-16T15:43:54.785Z,13.10
2018-04-16T15:46:22.629Z,12.90
2018-04-16T15:48:48.952Z,13.00
2018-04-16T15:51:16.312Z,13.00
2018-04-16T15:53:42.647Z,13.10
2018-04-16T15:56:09.612Z,13.10
2018-04-16T15:58:35.929Z,13.20
2018-04-16T16:01:02.281Z,13.10
2018-04-16T16:03:28.624Z,13.00
2018-04-16T16:05:55.721Z,13.00
2018-04-16T16:08:23.070Z,13.00
2018-04-16T16:10:49.405Z,12.90
2018-04-16T16:13:17.342Z,12.70
2018-04-16T16:15:43.673Z,12.70
2018-04-16T16:18:11.454Z,12.50
2018-04-16T16:20:37.766Z,12.50
2018-04-16T16:23:04.830Z,12.40
2018-04-16T16:25:31.161Z,12.40
2018-04-16T16:27:57.489Z,12.40
2018-04-16T16:30:23.813Z,12.40
2018-04-16T16:32:50.151Z,12.40
2018-04-16T16:35:16.469Z,12.40
2018-04-16T16:37:42.780Z,12.40
2018-04-16T16:40:09.132Z,12.50
2018-04-16T16:42:35.464Z,12.60
2018-04-16T16:45:01.793Z,12.60
2018-04-16T16:47:29.912Z,12.60
2018-04-16T16:49:56.245Z,12.50
2018-04-16T16:52:22.569Z,12.70
2018-04-16T16:54:49.313Z,12.80
2018-04-16T16:57:15.638Z,12.80
2018-04-16T16:59:41.979Z,12.80
2018-04-16T17:02:08.317Z,12.70
2018-04-16T17:04:35.653Z,12.80
2018-04-16T17:07:03.282Z,12.70
2018-04-16T17:09:29.608Z,12.80
2018-04-16T17:11:56.684Z,12.60
2018-04-16T17:14:23.029Z,12.60
2018-04-16T17:16:49.352Z,12.60
2018-04-16T17:19:16.690Z,12.50
2018-04-16T17:21:43.000Z,12.50
2018-04-16T17:24:10.055Z,12.50
2018-04-16T17:26:36.389Z,12.50
2018-04-16T17:29:02.708Z,12.60
2018-04-16T17:31:30.817Z,12.50
2018-04-16T17:33:58.141Z,12.50
2018-04-16T17:36:24.477Z,12.50
2018-04-16T17:38:51.820Z,12.50
2018-04-16T17:41:18.172Z,12.50
2018-04-16T17:43:45.473Z,12.50
2018-04-16T17:46:11.812Z,12.50
2018-04-16T17:48:38.160Z,12.50
2018-04-16T17:51:05.217Z,12.60
2018-04-16T17:53:32.576Z,12.60
2018-04-16T17:55:59.924Z,12.50
2018-04-16T17:58:26.253Z,12.50
2018-04-16T18:00:52.585Z,12.40
2018-04-16T18:03:19.680Z,12.40
2018-04-16T18:05:46.021Z,12.30
2018-04-16T18:08:12.472Z,12.30
2018-04-16T18:10:38.809Z,12.40
2018-04-16T18:13:05.137Z,12.50
2018-04-16T18:15:31.469Z,12.40
2018-04-16T18:17:57.816Z,12.40
2018-04-16T18:20:24.934Z,12.40
2018-04-16T18:22:51.261Z,12.40
2018-04-16T18:25:17.605Z,12.40
2018-04-16T18:27:44.020Z,12.30
2018-04-16T18:30:10.336Z,12.30
2018-04-16T18:32:36.682Z,12.20
2018-04-16T18:35:03.026Z,12.20
2018-04-16T18:37:29.368Z,12.00
2018-04-16T18:39:56.445Z,11.90
2018-04-16T18:42:22.756Z,11.90
2018-04-16T18:44:49.819Z,11.90
2018-04-16T18:47:16.890Z,11.90
2018-04-16T18:49:43.228Z,11.90
2018-04-16T18:52:09.584Z,11.80
2018-04-16T18:54:35.901Z,11.80
2018-04-16T18:57:02.239Z,11.80
2018-04-16T18:59:28.552Z,11.70
2018-04-16T19:01:54.889Z,11.70
2018-04-16T19:04:21.249Z,11.60
2018-04-16T19:06:47.594Z,11.60
2018-04-16T19:09:14.665Z,11.50
2018-04-16T19:11:40.993Z,11.40
2018-04-16T19:14:07.313Z,11.40
2018-04-16T19:16:34.374Z,11.40
2018-04-16T19:19:01.540Z,11.50
2018-04-16T19:21:34.204Z,11.40
2018-04-16T19:24:00.546Z,11.40
2018-04-16T19:26:27.985Z,11.40
2018-04-16T19:28:55.053Z,11.50
2018-04-16T19:31:21.429Z,11.40
2018-04-16T19:33:53.725Z,11.40
2018-04-16T19:36:20.826Z,11.40
2018-04-16T19:38:47.165Z,11.40
2018-04-16T19:41:13.637Z,11.40
2018-04-16T19:43:41.518Z,11.30
2018-04-16T19:46:07.848Z,11.30
2018-04-16T19:48:40.988Z,11.30
2018-04-16T19:51:08.410Z,11.30
2018-04-16T19:53:34.768Z,11.20
2018-04-16T19:56:07.411Z,11.30
2018-04-16T19:58:34.480Z,11.30
2018-04-16T20:01:00.837Z,11.40
2018-04-16T20:03:33.289Z,11.50
2018-04-16T20:05:59.828Z,11.60
2018-04-16T20:08:26.197Z,11.70
2018-04-16T20:10:52.532Z,11.70
2018-04-16T20:13:18.961Z,11.70
2018-04-16T20:15:45.426Z,11.70
2018-04-16T20:18:11.876Z,11.60
2018-04-16T20:20:38.231Z,11.50
2018-04-16T20:23:04.570Z,11.50
2018-04-16T20:25:30.929Z,11.50
2018-04-16T20:27:57.507Z,11.50
2018-04-16T20:30:23.898Z,11.50
2018-04-16T20:32:50.222Z,11.60
2018-04-16T20:35:16.589Z,11.50
2018-04-16T20:37:43.665Z,11.50
2018-04-16T20:40:09.985Z,11.40
2018-04-16T20:42:39.429Z,11.60
2018-04-16T20:45:05.781Z,12.50
2018-04-16T20:47:32.117Z,11.60
2018-04-16T20:49:58.461Z,11.60
2018-04-16T20:52:24.777Z,11.70
2018-04-16T20:54:51.094Z,11.70
2018-04-16T20:57:18.416Z,11.80
2018-04-16T20:59:52.504Z,11.80
2018-04-16T21:02:19.613Z,11.80
2018-04-16T21:04:45.957Z,11.80
2018-04-16T21:07:13.409Z,11.90
2018-04-16T21:09:40.469Z,11.80
2018-04-16T21:12:06.930Z,11.80
2018-04-16T21:14:33.423Z,11.80
2018-04-16T21:17:00.883Z,11.80
2018-04-16T21:19:27.933Z,11.80
2018-04-16T21:21:54.390Z,11.80
2018-04-16T21:24:20.802Z,11.80
2018-04-16T21:26:47.257Z,11.80
2018-04-16T21:29:13.669Z,11.70
2018-04-16T21:31:40.101Z,11.70
2018-04-16T21:34:07.230Z,11.70
2018-04-16T21:36:33.663Z,11.70
2018-04-16T21:39:00.647Z,11.60
2018-04-16T21:41:27.097Z,11.60
2018-04-16T21:43:54.290Z,11.60
2018-04-16T21:46:20.738Z,11.60
2018-04-16T21:48:47.175Z,11.70
2018-04-16T21:51:14.579Z,11.70
2018-04-16T21:53:41.774Z,11.80
2018-04-16T21:56:08.198Z,11.80
2018-04-16T21:58:35.342Z,11.80
2018-04-16T22:01:01.760Z,11.80
2018-04-16T22:03:28.411Z,11.80
2018-04-16T22:05:54.811Z,11.80
2018-04-16T22:08:22.553Z,11.70
2018-04-16T22:10:48.966Z,11.70
2018-04-16T22:13:15.397Z,11.60
2018-04-16T22:15:41.935Z,11.50
2018-04-16T22:18:08.328Z,11.60
2018-04-16T22:20:34.797Z,11.70
2018-04-16T22:23:01.202Z,11.80
2018-04-16T22:25:27.750Z,11.80
2018-04-16T22:27:54.199Z,11.80
2018-04-16T22:30:22.333Z,11.90
2018-04-16T22:32:50.151Z,11.90
2018-04-16T22:35:16.645Z,11.90
2018-04-16T22:37:43.049Z,11.90
2018-04-16T22:40:10.198Z,12.00
2018-04-16T22:42:38.396Z,11.90
2018-04-16T22:45:04.842Z,11.80
2018-04-16T22:47:31.246Z,11.80
2018-04-16T22:49:58.451Z,11.90
2018-04-16T22:52:25.906Z,11.90
2018-04-16T22:54:52.346Z,11.80
2018-04-16T22:57:19.724Z,11.80
2018-04-16T22:59:46.060Z,11.70
2018-04-16T23:02:12.569Z,11.70
2018-04-16T23:04:38.900Z,11.70
2018-04-16T23:07:06.239Z,11.70
2018-04-16T23:09:32.567Z,11.80
2018-04-16T23:11:58.892Z,11.80
2018-04-16T23:14:25.217Z,11.80
2018-04-16T23:16:51.529Z,11.80
2018-04-16T23:19:18.581Z,11.80
2018-04-16T23:21:44.925Z,11.80
2018-04-16T23:24:11.272Z,11.80
2018-04-16T23:26:37.632Z,11.80
2018-04-16T23:29:03.949Z,11.90
2018-04-16T23:31:30.289Z,11.90
2018-04-16T23:33:57.611Z,11.90
2018-04-16T23:36:23.946Z,11.90
2018-04-16T23:38:50.281Z,11.90
2018-04-16T23:41:16.597Z,11.90
2018-04-16T23:43:42.926Z,11.80
2018-04-16T23:46:09.242Z,11.90
2018-04-16T23:48:35.585Z,11.90
2018-04-16T23:51:01.901Z,11.90
2018-04-16T23:53:28.956Z,11.90
2018-04-16T23:55:55.290Z,11.80
2018-04-16T23:58:21.607Z,12.00
